Time;durP1;ratioP1;P1;durP2;ratioP2;P2;SDS_P1;SDS_P2;PMS_P1;PMS_P2;Temp;Humidity;BMP_temperature;BMP_pressure;BME280_temperature;BME280_humidity;BME280_pressure;Samples;Min_cycle;Max_cycle;Signal;HPM_P1;HPM_P2
2023/10/18 00:00:25;;;;;;;5.32;4.07;;;;;;;;;;5076356;28;20058;-86
2023/10/18 00:02:54;;;;;;;6.68;2.88;;;;;;;;;;5075103;28;20051;-84
2023/10/18 00:05:31;;;;;;;4.63;3.42;;;;;;;;;;5057127;28;20033;-84
2023/10/18 00:07:57;;;;;;;5.90;3.85;;;;;;;;;;5055193;28;20028;-85
2023/10/18 00:10:33;;;;;;;6.30;4.03;;;;;;;;;;5057884;28;20035;-86
2023/10/18 00:12:59;;;;;;;4.60;3.53;;;;;;;;;;5079868;28;20060;-86
2023/10/18 00:15:24;;;;;;;8.95;4.32;;;;;;;;;;5076401;28;20037;-86
2023/10/18 00:17:49;;;;;;;4.18;2.97;;;;;;;;;;5078385;28;20031;-86
2023/10/18 00:20:23;;;;;;;5.97;3.78;;;;;;;;;;5085323;28;20055;-85
2023/10/18 00:22:49;;;;;;;5.75;3.88;;;;;;;;;;5061553;28;20035;-85
2023/10/18 00:25:15;;;;;;;6.47;3.33;;;;;;;;;;5080687;28;20024;-85
2023/10/18 00:27:41;;;;;;;4.88;3.55;;;;;;;;;;5078962;28;20498;-85
2023/10/18 00:30:11;;;;;;;7.60;4.45;;;;;;;;;;5077446;28;20112;-86
2023/10/18 00:32:38;;;;;;;8.88;3.55;;;;;;;;;;5054674;28;20154;-87
2023/10/18 00:35:12;;;;;;;4.97;3.45;;;;;;;;;;5084396;28;20097;-84
2023/10/18 00:37:43;;;;;;;6.32;4.15;;;;;;;;;;5061193;28;20028;-84
2023/10/18 00:40:33;;;;;;;5.27;3.73;;;;;;;;;;5065546;28;20020;-84
2023/10/18 00:43:45;;;;;;;9.32;4.40;;;;;;;;;;5061832;28;20024;-84
2023/10/18 00:46:28;;;;;;;5.00;3.72;;;;;;;;;;5013419;28;20115;-84
2023/10/18 00:49:03;;;;;;;6.68;3.47;;;;;;;;;;5055762;28;20023;-84
2023/10/18 00:51:29;;;;;;;4.03;3.60;;;;;;;;;;5066351;28;20024;-85
2023/10/18 00:53:55;;;;;;;8.68;4.78;;;;;;;;;;5078795;28;20024;-85
2023/10/18 00:56:20;;;;;;;6.72;3.78;;;;;;;;;;5072785;28;20036;-84
2023/10/18 00:58:46;;;;;;;6.75;3.88;;;;;;;;;;5079904;28;20032;-84
2023/10/18 01:01:17;;;;;;;4.57;3.28;;;;;;;;;;5071615;28;20382;-85
2023/10/18 01:03:46;;;;;;;6.57;4.25;;;;;;;;;;5053413;28;20068;-85
2023/10/18 01:06:17;;;;;;;6.20;4.50;;;;;;;;;;5073465;28;20108;-84
2023/10/18 01:08:44;;;;;;;5.55;4.43;;;;;;;;;;5081998;28;20055;-85
2023/10/18 01:11:11;;;;;;;6.88;4.28;;;;;;;;;;5078106;28;20107;-84
2023/10/18 01:13:43;;;;;;;4.88;3.63;;;;;;;;;;5063290;28;20028;-85
2023/10/18 01:16:31;;;;;;;;;;;;;;;;;;5062419;28;20058;-85
2023/10/18 01:18:56;;;;;;;3.30;2.88;;;;;;;;;;5082173;28;19970;-85
2023/10/18 01:21:22;;;;;;;7.35;4.47;;;;;;;;;;5086679;28;20009;-84
2023/10/18 01:23:50;;;;;;;5.75;4.10;;;;;;;;;;5080009;28;20008;-84
2023/10/18 01:26:17;;;;;;;5.57;3.85;;;;;;;;;;5095592;28;20047;-84
2023/10/18 01:28:43;;;;;;;5.68;4.28;;;;;;;;;;5081091;28;20012;-85
2023/10/18 01:31:28;;;;;;;5.30;3.97;;;;;;;;;;5079165;28;20012;-84
2023/10/18 01:33:53;;;;;;;10.25;4.10;;;;;;;;;;5081571;28;20599;-85
2023/10/18 01:36:20;;;;;;;6.60;4.45;;;;;;;;;;5090385;28;20012;-84
2023/10/18 01:38:54;;;;;;;5.13;4.05;;;;;;;;;;5075642;28;20063;-84
2023/10/18 01:41:27;;;;;;;7.30;4.57;;;;;;;;;;5104873;28;20016;-85
2023/10/18 01:43:58;;;;;;;5.47;3.45;;;;;;;;;;5095413;28;20029;-84
2023/10/18 01:46:23;;;;;;;7.25;3.47;;;;;;;;;;5075823;28;20092;-85
2023/10/18 01:48:52;;;;;;;7.53;4.05;;;;;;;;;;5081445;28;20371;-86
2023/10/18 01:51:18;;;;;;;8.95;4.63;;;;;;;;;;5065411;28;20059;-86
2023/10/18 01:53:43;;;;;;;4.85;3.47;;;;;;;;;;5070121;28;20035;-86
2023/10/18 01:56:09;;;;;;;4.90;3.63;;;;;;;;;;5071705;28;20031;-86
2023/10/18 01:58:35;;;;;;;6.13;3.63;;;;;;;;;;5071693;28;20021;-86
2023/10/18 02:01:07;;;;;;;4.00;3.50;;;;;;;;;;5081962;28;20035;-86
2023/10/18 02:03:34;;;;;;;4.03;3.33;;;;;;;;;;5088162;28;20021;-85
2023/10/18 02:06:05;;;;;;;5.57;3.65;;;;;;;;;;5066713;28;20441;-85
2023/10/18 02:08:30;;;;;;;7.93;4.20;;;;;;;;;;5063544;28;20028;-85
2023/10/18 02:11:35;;;;;;;6.22;4.35;;;;;;;;;;5089395;28;20032;-85
2023/10/18 02:14:02;;;;;;;8.00;4.70;;;;;;;;;;5062973;28;20036;-85
2023/10/18 02:16:28;;;;;;;7.10;4.65;;;;;;;;;;5075009;28;20020;-85
2023/10/18 02:18:54;;;;;;;4.35;3.58;;;;;;;;;;5079729;28;20077;-86
2023/10/18 02:21:21;;;;;;;5.55;4.47;;;;;;;;;;5079844;28;20483;-85
2023/10/18 02:23:50;;;;;;;6.00;4.50;;;;;;;;;;5087147;28;20024;-86
2023/10/18 02:26:34;;;;;;;8.10;4.43;;;;;;;;;;5064293;28;20031;-86
2023/10/18 02:29:05;;;;;;;8.30;4.28;;;;;;;;;;5059522;28;20029;-85
2023/10/18 02:31:31;;;;;;;6.53;3.95;;;;;;;;;;5060597;28;20024;-86
2023/10/18 02:33:58;;;;;;;4.97;3.42;;;;;;;;;;5060654;28;20016;-86
2023/10/18 02:36:32;;;;;;;8.10;4.50;;;;;;;;;;5078765;28;20127;-86
2023/10/18 02:38:58;;;;;;;7.47;4.15;;;;;;;;;;5060620;28;20032;-86
2023/10/18 02:41:29;;;;;;;5.53;4.13;;;;;;;;;;5072226;28;20028;-86
2023/10/18 02:43:55;;;;;;;6.82;3.78;;;;;;;;;;5079929;28;20025;-84
2023/10/18 02:46:24;;;;;;;8.13;4.25;;;;;;;;;;5060230;28;20100;-85
2023/10/18 02:48:57;;;;;;;4.93;4.07;;;;;;;;;;5063578;28;20033;-85
2023/10/18 02:51:26;;;;;;;7.03;4.63;;;;;;;;;;5060237;28;20016;-85
2023/10/18 02:53:54;;;;;;;5.95;3.83;;;;;;;;;;5072596;28;20017;-85
2023/10/18 02:56:37;;;;;;;5.18;3.70;;;;;;;;;;5065021;28;20504;-84
2023/10/18 02:59:09;;;;;;;7.95;4.10;;;;;;;;;;5055698;28;20040;-83
2023/10/18 03:01:43;;;;;;;6.30;4.60;;;;;;;;;;5073960;28;20028;-83
2023/10/18 03:04:09;;;;;;;10.90;4.63;;;;;;;;;;5077496;28;20085;-84
2023/10/18 03:06:36;;;;;;;6.05;4.38;;;;;;;;;;5079555;28;20025;-84
2023/10/18 03:09:03;;;;;;;6.70;4.28;;;;;;;;;;5062694;28;20048;-84
2023/10/18 03:11:31;;;;;;;7.00;4.30;;;;;;;;;;5079159;28;20024;-84
2023/10/18 03:13:57;;;;;;;10.20;5.35;;;;;;;;;;5061691;28;20024;-84
2023/10/18 03:18:59;;;;;;;6.35;4.57;;;;;;;;;;5078410;28;20039;-84
2023/10/18 03:21:26;;;;;;;6.60;4.20;;;;;;;;;;5074072;28;20497;-85
2023/10/18 03:23:52;;;;;;;7.70;4.00;;;;;;;;;;5090788;28;20024;-84
2023/10/18 03:26:35;;;;;;;5.30;4.00;;;;;;;;;;5085518;28;20019;-85
2023/10/18 03:29:11;;;;;;;6.53;4.10;;;;;;;;;;5068033;28;20032;-84
2023/10/18 03:31:44;;;;;;;9.55;4.40;;;;;;;;;;5085931;28;20020;-85
2023/10/18 03:34:19;;;;;;;7.22;4.15;;;;;;;;;;5067270;28;20016;-85
2023/10/18 03:36:49;;;;;;;7.47;4.20;;;;;;;;;;5067042;28;20158;-84
2023/10/18 03:39:25;;;;;;;6.50;4.32;;;;;;;;;;5066416;28;20060;-84
2023/10/18 03:41:51;;;;;;;6.55;4.15;;;;;;;;;;5083569;28;20025;-85
2023/10/18 03:44:21;;;;;;;7.53;4.72;;;;;;;;;;5082192;28;20497;-85
2023/10/18 03:46:47;;;;;;;7.45;4.55;;;;;;;;;;5063080;28;20515;-85
2023/10/18 03:49:23;;;;;;;5.32;3.72;;;;;;;;;;5063419;28;20069;-85
2023/10/18 03:51:50;;;;;;;8.15;4.82;;;;;;;;;;5062504;28;20039;-84
2023/10/18 03:54:15;;;;;;;5.30;4.00;;;;;;;;;;5061548;28;20016;-85
2023/10/18 03:56:43;;;;;;;7.22;4.53;;;;;;;;;;5080986;28;20031;-85
2023/10/18 03:59:19;;;;;;;5.15;3.88;;;;;;;;;;5091546;28;20016;-84
2023/10/18 04:04:36;;;;;;;5.75;3.50;;;;;;;;;;5082536;28;20035;-85
2023/10/18 04:07:21;;;;;;;5.38;3.80;;;;;;;;;;5072661;28;20024;-84
2023/10/18 04:09:54;;;;;;;4.40;3.42;;;;;;;;;;5082006;28;20032;-85
2023/10/18 04:12:22;;;;;;;6.57;4.47;;;;;;;;;;5102450;28;20058;-86
2023/10/18 04:14:56;;;;;;;5.70;4.28;;;;;;;;;;5088149;28;20024;-83
2023/10/18 04:17:36;;;;;;;4.65;3.92;;;;;;;;;;5070338;28;20027;-85
2023/10/18 04:22:46;;;;;;;7.57;4.15;;;;;;;;;;5074742;28;20058;-84
2023/10/18 04:25:17;;;;;;;7.05;4.50;;;;;;;;;;5061228;28;20012;-84
2023/10/18 04:27:44;;;;;;;8.73;5.18;;;;;;;;;;5080283;28;20020;-85
2023/10/18 04:30:15;;;;;;;8.75;4.80;;;;;;;;;;5061493;28;20039;-84
2023/10/18 04:32:40;;;;;;;9.40;4.85;;;;;;;;;;5079076;28;20421;-84
2023/10/18 04:35:17;;;;;;;12.77;6.15;;;;;;;;;;5079213;28;20025;-85
2023/10/18 04:37:43;;;;;;;9.70;4.97;;;;;;;;;;5060452;28;20032;-84
2023/10/18 04:40:22;;;;;;;7.72;5.10;;;;;;;;;;5061996;28;20028;-84
2023/10/18 04:42:48;;;;;;;9.98;5.15;;;;;;;;;;5061332;28;20028;-84
2023/10/18 04:45:16;;;;;;;7.78;4.95;;;;;;;;;;5078328;28;20462;-85
2023/10/18 04:47:42;;;;;;;10.70;5.50;;;;;;;;;;5067199;28;20120;-84
2023/10/18 04:50:11;;;;;;;10.02;5.03;;;;;;;;;;5067321;28;20052;-85
2023/10/18 04:52:40;;;;;;;8.43;4.65;;;;;;;;;;5060810;28;20379;-83
2023/10/18 04:55:11;;;;;;;7.55;4.88;;;;;;;;;;5063326;28;20082;-84
2023/10/18 04:57:38;;;;;;;7.47;5.13;;;;;;;;;;5061565;28;20017;-84
2023/10/18 05:00:12;;;;;;;8.30;4.85;;;;;;;;;;5057556;28;20049;-84
2023/10/18 05:02:38;;;;;;;7.43;4.57;;;;;;;;;;5059607;28;20077;-85
2023/10/18 05:05:10;;;;;;;6.85;4.38;;;;;;;;;;5059809;28;20016;-84
2023/10/18 05:07:41;;;;;;;;;;;;;;;;;;5075510;28;20032;-85
2023/10/18 05:10:14;;;;;;;5.90;3.97;;;;;;;;;;5051773;28;19991;-84
2023/10/18 05:13:01;;;;;;;5.38;3.95;;;;;;;;;;5077177;28;20016;-85
2023/10/18 05:15:30;;;;;;;9.50;3.95;;;;;;;;;;5071552;28;20016;-85
2023/10/18 05:18:15;;;;;;;10.25;5.10;;;;;;;;;;5060731;28;20039;-85
2023/10/18 05:20:47;;;;;;;8.18;4.22;;;;;;;;;;5059535;28;20034;-85
2023/10/18 05:23:32;;;;;;;;;;;;;;;;;;5077184;28;20272;-85
2023/10/18 05:26:08;;;;;;;7.40;4.53;;;;;;;;;;5090732;28;19908;-85
2023/10/18 05:29:17;;;;;;;8.32;4.43;;;;;;;;;;5070802;28;20016;-86
2023/10/18 05:31:44;;;;;;;16.27;5.63;;;;;;;;;;5079527;28;20187;-85
2023/10/18 05:39:49;;;;;;;7.60;4.18;;;;;;;;;;5085043;28;20101;-87
2023/10/18 05:42:03;;;;;;;8.20;4.30;;;;;;;;;;5085057;28;20036;-86
2023/10/18 05:44:29;;;;;;;7.55;4.13;;;;;;;;;;5062834;28;20536;-88
2023/10/18 05:46:54;;;;;;;7.70;5.22;;;;;;;;;;5052111;28;20040;-86
2023/10/18 05:49:28;;;;;;;6.40;4.72;;;;;;;;;;5059038;28;20017;-86
2023/10/18 05:51:58;;;;;;;7.78;4.22;;;;;;;;;;5077092;28;20119;-85
2023/10/18 05:54:24;;;;;;;7.00;4.10;;;;;;;;;;5068400;28;20020;-86
2023/10/18 05:56:51;;;;;;;9.80;5.63;;;;;;;;;;5057561;28;20024;-86
2023/10/18 06:01:50;;;;;;;7.90;4.38;;;;;;;;;;5076297;28;20028;-84
2023/10/18 06:04:23;;;;;;;8.15;4.72;;;;;;;;;;5060647;28;20027;-84
2023/10/18 06:06:49;;;;;;;6.35;4.75;;;;;;;;;;5061172;28;20074;-84
2023/10/18 06:09:26;;;;;;;7.15;4.32;;;;;;;;;;5064434;28;20028;-84
2023/10/18 06:11:55;;;;;;;10.77;5.47;;;;;;;;;;5074976;28;20072;-85
2023/10/18 06:14:25;;;;;;;6.85;4.60;;;;;;;;;;5062956;28;20055;-86
2023/10/18 06:17:06;;;;;;;8.13;5.20;;;;;;;;;;5064911;28;20036;-84
2023/10/18 06:19:32;;;;;;;7.70;4.93;;;;;;;;;;5066313;28;20478;-85
2023/10/18 06:21:57;;;;;;;8.57;5.28;;;;;;;;;;5082435;28;20089;-86
2023/10/18 06:24:25;;;;;;;8.25;4.93;;;;;;;;;;5068019;28;20025;-88
2023/10/18 06:26:52;;;;;;;9.50;5.00;;;;;;;;;;5086736;28;20386;-86
2023/10/18 06:29:30;;;;;;;6.95;4.07;;;;;;;;;;5077893;28;20035;-84
2023/10/18 06:31:56;;;;;;;7.28;5.03;;;;;;;;;;5067697;28;20081;-86
2023/10/18 06:34:26;;;;;;;12.18;5.30;;;;;;;;;;5077719;28;20028;-86
2023/10/18 06:36:52;;;;;;;11.68;4.80;;;;;;;;;;5060478;28;20024;-85
2023/10/18 06:39:37;;;;;;;8.52;4.50;;;;;;;;;;5076697;28;20058;-85
2023/10/18 06:42:06;;;;;;;6.18;4.05;;;;;;;;;;5080995;28;20040;-85
2023/10/18 06:44:33;;;;;;;10.80;6.00;;;;;;;;;;5083137;28;20039;-85
2023/10/18 06:47:01;;;;;;;9.90;5.25;;;;;;;;;;5063084;28;20046;-84
2023/10/18 06:49:27;;;;;;;8.32;5.07;;;;;;;;;;5065017;28;20020;-86
2023/10/18 06:51:52;;;;;;;7.88;5.35;;;;;;;;;;5064603;28;20031;-85
2023/10/18 06:54:30;;;;;;;11.32;5.30;;;;;;;;;;5082765;28;20028;-87
2023/10/18 06:57:09;;;;;;;9.48;5.15;;;;;;;;;;5071144;28;20114;-85
2023/10/18 06:59:35;;;;;;;9.63;4.90;;;;;;;;;;5067419;28;20036;-84
2023/10/18 07:02:00;;;;;;;6.65;4.65;;;;;;;;;;5064827;28;20028;-86
2023/10/18 07:04:35;;;;;;;10.15;6.30;;;;;;;;;;5080415;28;20615;-86
2023/10/18 07:07:00;;;;;;;11.05;5.90;;;;;;;;;;5065492;28;20024;-86
2023/10/18 07:09:26;;;;;;;9.02;5.72;;;;;;;;;;5084013;28;20437;-86
2023/10/18 07:11:53;;;;;;;11.10;6.30;;;;;;;;;;5059026;28;20024;-85
2023/10/18 07:14:20;;;;;;;9.25;6.53;;;;;;;;;;5057625;28;20036;-86
2023/10/18 07:16:48;;;;;;;11.35;6.93;;;;;;;;;;5062301;28;20126;-86
2023/10/18 07:19:25;;;;;;;9.57;5.43;;;;;;;;;;5064213;28;20103;-86
2023/10/18 07:21:51;;;;;;;14.93;6.72;;;;;;;;;;5062679;28;20482;-85
2023/10/18 07:24:21;;;;;;;10.55;6.90;;;;;;;;;;5057800;28;20024;-87
2023/10/18 07:26:47;;;;;;;11.02;6.47;;;;;;;;;;5084102;28;20028;-86
2023/10/18 07:29:16;;;;;;;15.15;7.30;;;;;;;;;;5054677;28;20036;-86
2023/10/18 07:31:44;;;;;;;14.40;8.35;;;;;;;;;;5064378;28;20398;-86
2023/10/18 07:34:17;;;;;;;12.15;7.40;;;;;;;;;;5063859;28;20020;-86
2023/10/18 07:36:44;;;;;;;13.15;7.38;;;;;;;;;;5092504;28;20039;-86
2023/10/18 07:39:17;;;;;;;11.82;7.32;;;;;;;;;;5050289;28;20024;-86
2023/10/18 07:41:43;;;;;;;16.83;7.65;;;;;;;;;;5064012;28;20085;-85
2023/10/18 07:44:08;;;;;;;14.98;8.45;;;;;;;;;;5060623;28;20028;-86
2023/10/18 07:46:39;;;;;;;8.02;5.70;;;;;;;;;;5076774;28;20111;-85
2023/10/18 07:49:05;;;;;;;12.00;6.95;;;;;;;;;;5059503;28;20037;-87
2023/10/18 07:51:31;;;;;;;12.60;6.50;;;;;;;;;;5057547;28;20024;-86
2023/10/18 07:53:57;;;;;;;10.20;6.40;;;;;;;;;;5079538;28;20025;-85
2023/10/18 07:56:31;;;;;;;11.52;6.93;;;;;;;;;;5056628;28;20025;-86
2023/10/18 08:01:51;;;;;;;13.32;6.68;;;;;;;;;;5077636;28;20513;-86
2023/10/18 08:04:20;;;;;;;10.70;6.60;;;;;;;;;;5065766;28;20061;-85
2023/10/18 08:06:49;;;;;;;11.15;6.55;;;;;;;;;;5084481;28;20057;-86
2023/10/18 08:09:19;;;;;;;11.32;6.43;;;;;;;;;;5064218;28;20470;-85
2023/10/18 08:11:45;;;;;;;10.07;6.68;;;;;;;;;;5065986;28;20043;-86
2023/10/18 08:14:16;;;;;;;10.80;6.97;;;;;;;;;;5070974;28;20021;-86
2023/10/18 08:16:51;;;;;;;8.63;6.13;;;;;;;;;;5060719;28;20110;-86
2023/10/18 08:19:22;;;;;;;10.77;6.18;;;;;;;;;;5065483;28;20062;-86
2023/10/18 08:22:02;;;;;;;9.85;6.13;;;;;;;;;;5065437;28;20024;-85
2023/10/18 08:24:28;;;;;;;10.07;6.53;;;;;;;;;;5073273;28;20394;-84
2023/10/18 08:26:59;;;;;;;10.45;6.20;;;;;;;;;;5063342;28;20034;-86
2023/10/18 08:29:27;;;;;;;9.00;5.63;;;;;;;;;;5054495;28;20025;-86
2023/10/18 08:31:55;;;;;;;10.63;6.05;;;;;;;;;;5055016;28;20029;-85
2023/10/18 08:34:23;;;;;;;11.43;6.30;;;;;;;;;;5090888;28;20031;-86
2023/10/18 08:36:50;;;;;;;11.07;5.93;;;;;;;;;;5083943;28;20080;-86
2023/10/18 08:39:25;;;;;;;9.13;6.03;;;;;;;;;;5064812;28;20025;-86
2023/10/18 08:42:19;;;;;;;9.93;6.55;;;;;;;;;;5060730;28;20032;-86
2023/10/18 08:44:45;;;;;;;10.50;6.18;;;;;;;;;;5072841;28;20024;-85
2023/10/18 08:49:44;;;;;;;9.57;5.15;;;;;;;;;;5075947;28;20031;-86
2023/10/18 08:52:11;;;;;;;8.73;5.53;;;;;;;;;;5075736;28;20032;-86
2023/10/18 08:54:40;;;;;;;8.75;6.05;;;;;;;;;;5080263;28;20482;-87
2023/10/18 08:57:08;;;;;;;9.85;5.70;;;;;;;;;;5075759;28;20059;-86
2023/10/18 08:59:48;;;;;;;9.35;5.10;;;;;;;;;;5068854;28;20038;-86
2023/10/18 09:02:18;;;;;;;8.45;5.47;;;;;;;;;;5074560;28;20020;-86
2023/10/18 09:04:59;;;;;;;8.45;5.65;;;;;;;;;;5082449;28;20047;-87
2023/10/18 09:07:44;;;;;;;9.50;5.97;;;;;;;;;;5050062;28;20363;-86
2023/10/18 09:10:26;;;;;;;9.73;5.95;;;;;;;;;;5075910;28;20025;-86
2023/10/18 09:15:35;;;;;;;8.23;5.80;;;;;;;;;;5080412;28;20067;-86
2023/10/18 09:18:05;;;;;;;9.40;5.90;;;;;;;;;;5085086;28;20501;-85
2023/10/18 09:20:31;;;;;;;12.15;5.60;;;;;;;;;;5079107;28;20027;-85
2023/10/18 09:23:03;;;;;;;10.80;5.15;;;;;;;;;;5070409;28;20056;-85
2023/10/18 09:28:25;;;;;;;11.18;4.93;;;;;;;;;;5075764;28;20036;-86
2023/10/18 09:31:00;;;;;;;8.43;5.03;;;;;;;;;;5053403;28;20027;-87
2023/10/18 09:33:27;;;;;;;7.25;5.47;;;;;;;;;;5076025;28;20032;-85
2023/10/18 09:35:56;;;;;;;8.25;5.05;;;;;;;;;;5080118;28;20474;-86
2023/10/18 09:38:22;;;;;;;8.23;5.53;;;;;;;;;;5057949;28;20082;-85
2023/10/18 09:40:48;;;;;;;7.22;4.80;;;;;;;;;;5056836;28;20025;-86
2023/10/18 09:43:14;;;;;;;9.52;5.15;;;;;;;;;;5057306;28;20044;-85
2023/10/18 09:45:39;;;;;;;6.47;5.05;;;;;;;;;;5074331;28;20016;-86
2023/10/18 09:48:08;;;;;;;7.95;4.88;;;;;;;;;;5055908;28;20025;-86
2023/10/18 09:50:36;;;;;;;10.10;5.07;;;;;;;;;;5058980;28;20027;-85
2023/10/18 09:53:02;;;;;;;13.23;6.25;;;;;;;;;;5076096;28;20359;-86
2023/10/18 09:55:28;;;;;;;11.57;5.97;;;;;;;;;;5067353;28;20535;-85
2023/10/18 09:58:03;;;;;;;9.38;5.30;;;;;;;;;;5059280;28;20025;-87
2023/10/18 10:00:41;;;;;;;11.27;6.00;;;;;;;;;;5065663;28;20062;-86
2023/10/18 10:03:08;;;;;;;9.40;5.82;;;;;;;;;;5078273;28;20028;-86
2023/10/18 10:05:41;;;;;;;8.50;5.32;;;;;;;;;;5086098;28;20041;-86
2023/10/18 10:08:07;;;;;;;8.10;5.10;;;;;;;;;;5064132;28;20062;-86
2023/10/18 10:10:45;;;;;;;8.68;5.50;;;;;;;;;;5075386;28;20024;-86
2023/10/18 10:13:25;;;;;;;8.02;4.80;;;;;;;;;;5061219;28;20432;-86
2023/10/18 10:16:06;;;;;;;8.75;4.88;;;;;;;;;;5058066;28;20035;-86
2023/10/18 10:18:37;;;;;;;11.48;5.45;;;;;;;;;;5074340;28;20771;-86
2023/10/18 10:21:06;;;;;;;8.30;5.07;;;;;;;;;;5087038;28;20016;-86
2023/10/18 10:23:33;;;;;;;10.00;5.47;;;;;;;;;;5068237;28;20021;-86
2023/10/18 10:26:11;;;;;;;8.80;5.18;;;;;;;;;;5079854;28;20119;-85
2023/10/18 10:31:52;;;;;;;11.20;5.60;;;;;;;;;;5078019;28;20385;-86
2023/10/18 10:34:26;;;;;;;8.70;5.97;;;;;;;;;;5076455;28;20039;-86
2023/10/18 10:36:52;;;;;;;12.25;5.10;;;;;;;;;;5059237;28;20025;-86
2023/10/18 10:39:23;;;;;;;8.32;5.05;;;;;;;;;;5061096;28;20027;-86
2023/10/18 10:41:50;;;;;;;9.18;4.45;;;;;;;;;;5056956;28;20031;-86
2023/10/18 10:44:23;;;;;;;7.65;5.05;;;;;;;;;;5059270;28;20029;-87
2023/10/18 10:47:11;;;;;;;10.25;5.10;;;;;;;;;;5068103;28;20367;-85
2023/10/18 10:49:49;;;;;;;9.05;4.95;;;;;;;;;;5061093;28;20343;-86
2023/10/18 10:52:18;;;;;;;8.00;4.65;;;;;;;;;;5060591;28;20158;-85
2023/10/18 10:54:51;;;;;;;8.50;5.15;;;;;;;;;;5078180;28;20062;-87
2023/10/18 10:57:18;;;;;;;10.07;5.30;;;;;;;;;;5077826;28;20024;-86
2023/10/18 10:59:51;;;;;;;9.00;4.95;;;;;;;;;;5076878;28;20024;-86
2023/10/18 11:02:29;;;;;;;6.82;4.57;;;;;;;;;;5058824;28;20379;-87
2023/10/18 11:04:58;;;;;;;8.88;5.40;;;;;;;;;;5074953;28;20043;-87
2023/10/18 11:07:25;;;;;;;6.82;3.83;;;;;;;;;;5077587;28;20024;-87
2023/10/18 11:09:59;;;;;;;6.50;4.57;;;;;;;;;;5078373;28;20025;-87
2023/10/18 11:12:26;;;;;;;6.80;4.38;;;;;;;;;;5060836;28;20032;-87
2023/10/18 11:14:52;;;;;;;6.68;4.72;;;;;;;;;;5079469;28;20472;-87
2023/10/18 11:17:18;;;;;;;8.63;4.78;;;;;;;;;;5088584;28;21310;-86
2023/10/18 11:19:51;;;;;;;6.40;4.68;;;;;;;;;;5066284;28;20074;-85
2023/10/18 11:22:20;;;;;;;7.90;4.32;;;;;;;;;;5064010;28;20032;-85
2023/10/18 11:24:50;;;;;;;7.68;4.22;;;;;;;;;;5074909;28;20020;-85
2023/10/18 11:27:34;;;;;;;9.07;4.45;;;;;;;;;;5080594;28;20063;-85
2023/10/18 11:30:16;;;;;;;6.13;4.28;;;;;;;;;;5082839;28;20040;-85
2023/10/18 11:32:48;;;;;;;6.93;3.95;;;;;;;;;;5083472;28;20121;-87
2023/10/18 11:35:42;;;;;;;7.05;4.40;;;;;;;;;;5095576;28;20042;-83
2023/10/18 11:38:16;;;;;;;5.35;3.30;;;;;;;;;;5070348;28;20132;-85
2023/10/18 11:40:50;;;;;;;5.65;3.72;;;;;;;;;;5098331;28;20021;-84
2023/10/18 11:43:25;;;;;;;4.72;3.45;;;;;;;;;;5088440;28;20050;-85
2023/10/18 11:46:05;;;;;;;6.70;3.50;;;;;;;;;;5083408;28;20020;-87
2023/10/18 11:48:37;;;;;;;5.85;3.58;;;;;;;;;;5088398;28;20470;-86
2023/10/18 11:51:08;;;;;;;7.18;3.30;;;;;;;;;;5080106;28;20016;-85
2023/10/18 11:53:35;;;;;;;4.20;2.95;;;;;;;;;;5082749;28;20024;-87
2023/10/18 11:56:05;;;;;;;3.53;2.70;;;;;;;;;;5063190;28;20029;-84
2023/10/18 11:58:32;;;;;;;5.60;3.03;;;;;;;;;;5095604;28;20030;-84
2023/10/18 12:01:01;;;;;;;3.63;2.47;;;;;;;;;;5081589;28;20036;-87
2023/10/18 12:03:33;;;;;;;4.28;3.00;;;;;;;;;;5069292;28;20081;-87
2023/10/18 12:06:03;;;;;;;4.07;2.55;;;;;;;;;;5088627;28;20066;-86
2023/10/18 12:08:40;;;;;;;3.70;2.58;;;;;;;;;;5073387;28;20143;-87
2023/10/18 12:11:08;;;;;;;3.67;2.55;;;;;;;;;;5074045;28;20024;-86
2023/10/18 12:13:33;;;;;;;3.08;2.33;;;;;;;;;;5058168;28;20518;-86
2023/10/18 12:16:00;;;;;;;3.20;2.58;;;;;;;;;;5079505;28;20047;-86
2023/10/18 12:18:28;;;;;;;7.00;2.45;;;;;;;;;;5079927;28;20036;-86
2023/10/18 12:20:54;;;;;;;3.60;2.63;;;;;;;;;;5078845;28;20020;-86
2023/10/18 12:23:19;;;;;;;3.25;2.45;;;;;;;;;;5062699;28;20035;-85
2023/10/18 12:25:46;;;;;;;3.05;1.98;;;;;;;;;;5064776;28;20046;-87
2023/10/18 12:28:12;;;;;;;2.65;2.00;;;;;;;;;;5080748;28;20043;-86
2023/10/18 12:30:43;;;;;;;4.18;2.50;;;;;;;;;;5080756;28;20028;-87
2023/10/18 12:33:33;;;;;;;3.60;2.17;;;;;;;;;;5063381;28;20024;-86
2023/10/18 12:35:59;;;;;;;3.42;2.45;;;;;;;;;;5086042;28;20044;-87
2023/10/18 12:38:32;;;;;;;2.75;1.80;;;;;;;;;;5083762;28;20134;-86
2023/10/18 12:41:07;;;;;;;3.22;2.55;;;;;;;;;;5063346;28;20054;-85
2023/10/18 12:43:37;;;;;;;4.25;2.40;;;;;;;;;;5075797;28;20083;-86
2023/10/18 12:46:04;;;;;;;5.30;2.55;;;;;;;;;;5082196;28;20453;-85
2023/10/18 12:48:31;;;;;;;3.08;2.47;;;;;;;;;;5081572;28;20115;-86
2023/10/18 12:50:56;;;;;;;4.93;2.40;;;;;;;;;;5083862;28;20028;-86
2023/10/18 12:55:58;;;;;;;2.78;2.08;;;;;;;;;;5082398;28;20021;-87
2023/10/18 12:58:31;;;;;;;4.88;2.25;;;;;;;;;;5079213;28;20031;-86
2023/10/18 13:01:06;;;;;;;4.28;2.00;;;;;;;;;;5078157;28;20116;-87
2023/10/18 13:03:43;;;;;;;3.97;2.45;;;;;;;;;;5074074;28;20032;-86
2023/10/18 13:06:15;;;;;;;2.92;2.22;;;;;;;;;;5086537;28;20020;-84
2023/10/18 13:08:54;;;;;;;3.97;2.05;;;;;;;;;;5086165;28;20028;-87
2023/10/18 13:14:06;;;;;;;6.40;2.28;;;;;;;;;;5081965;28;20032;-86
2023/10/18 13:16:32;;;;;;;1.65;1.55;;;;;;;;;;5066403;28;20027;-86
2023/10/18 13:18:57;;;;;;;3.30;2.10;;;;;;;;;;5078748;28;20025;-86
2023/10/18 13:21:27;;;;;;;7.82;1.80;;;;;;;;;;5065893;28;20058;-87
2023/10/18 13:23:56;;;;;;;2.33;1.92;;;;;;;;;;5064783;28;20031;-86
2023/10/18 13:26:26;;;;;;;2.55;1.70;;;;;;;;;;5084889;28;20032;-85
2023/10/18 13:28:59;;;;;;;2.28;1.95;;;;;;;;;;5074342;28;20020;-86
2023/10/18 13:31:31;;;;;;;2.83;2.05;;;;;;;;;;5086294;28;20028;-87
2023/10/18 13:34:06;;;;;;;3.28;2.15;;;;;;;;;;5079523;28;20033;-83
2023/10/18 13:36:32;;;;;;;7.45;2.20;;;;;;;;;;5077870;28;20028;-87
2023/10/18 13:38:57;;;;;;;4.22;2.38;;;;;;;;;;5084704;28;20040;-84
2023/10/18 13:41:23;;;;;;;2.03;1.85;;;;;;;;;;5081918;28;20032;-84
2023/10/18 13:43:48;;;;;;;3.38;2.45;;;;;;;;;;5067567;28;20016;-85
2023/10/18 13:46:23;;;;;;;3.28;2.53;;;;;;;;;;5052157;28;20043;-84
2023/10/18 13:48:51;;;;;;;4.20;2.65;;;;;;;;;;5056916;28;20020;-84
2023/10/18 13:51:17;;;;;;;5.20;2.80;;;;;;;;;;5072109;28;20024;-83
2023/10/18 13:53:43;;;;;;;3.30;2.38;;;;;;;;;;5072876;28;20025;-84
2023/10/18 13:56:12;;;;;;;4.68;2.83;;;;;;;;;;5079923;28;20028;-91
2023/10/18 13:58:39;;;;;;;5.18;2.42;;;;;;;;;;5083257;28;20089;-86
2023/10/18 14:01:05;;;;;;;3.65;2.50;;;;;;;;;;5083297;28;20100;-85
2023/10/18 14:03:33;;;;;;;3.03;2.25;;;;;;;;;;5071057;28;20021;-85
2023/10/18 14:06:02;;;;;;;4.20;2.90;;;;;;;;;;5069314;28;20047;-86
2023/10/18 14:08:28;;;;;;;4.15;2.80;;;;;;;;;;5080951;28;20028;-88
2023/10/18 14:10:56;;;;;;;4.90;2.92;;;;;;;;;;5087887;28;20108;-86
2023/10/18 14:13:25;;;;;;;4.50;2.65;;;;;;;;;;5078931;28;20024;-86
2023/10/18 14:15:50;;;;;;;3.05;2.58;;;;;;;;;;5060762;28;20035;-88
2023/10/18 14:18:16;;;;;;;4.95;2.90;;;;;;;;;;5062586;28;20032;-86
2023/10/18 14:20:50;;;;;;;5.60;3.13;;;;;;;;;;5076248;28;20008;-86
2023/10/18 14:23:19;;;;;;;7.85;3.22;;;;;;;;;;5081372;28;20035;-86
2023/10/18 14:25:45;;;;;;;8.23;3.40;;;;;;;;;;5078884;28;20084;-87
2023/10/18 14:28:12;;;;;;;4.22;3.08;;;;;;;;;;5090880;28;20047;-87
2023/10/18 14:30:38;;;;;;;2.40;2.13;;;;;;;;;;5074625;28;20024;-86
2023/10/18 14:33:04;;;;;;;2.38;1.98;;;;;;;;;;5085632;28;20037;-85
2023/10/18 14:35:31;;;;;;;3.33;2.30;;;;;;;;;;5088329;28;20025;-85
2023/10/18 14:37:59;;;;;;;2.95;1.98;;;;;;;;;;5070173;28;20025;-85
2023/10/18 14:40:27;;;;;;;4.72;2.03;;;;;;;;;;5075680;28;20119;-86
2023/10/18 14:42:53;;;;;;;3.30;2.05;;;;;;;;;;5051669;28;20127;-86
2023/10/18 14:45:18;;;;;;;4.95;2.70;;;;;;;;;;5074306;28;20048;-85
2023/10/18 14:47:44;;;;;;;3.42;2.53;;;;;;;;;;5071945;28;20025;-86
2023/10/18 14:50:10;;;;;;;4.53;2.78;;;;;;;;;;5060440;28;20026;-84
2023/10/18 14:52:42;;;;;;;3.40;2.55;;;;;;;;;;5057299;28;20057;-85
2023/10/18 14:55:11;;;;;;;6.70;3.25;;;;;;;;;;5059239;28;20036;-86
2023/10/18 14:57:40;;;;;;;5.28;3.22;;;;;;;;;;5068544;28;20158;-86
2023/10/18 15:00:10;;;;;;;4.18;3.00;;;;;;;;;;5059195;28;20047;-88
2023/10/18 15:02:39;;;;;;;4.85;3.08;;;;;;;;;;5053524;28;20028;-85
2023/10/18 15:05:09;;;;;;;5.47;3.50;;;;;;;;;;5052808;28;20024;-86
2023/10/18 15:07:36;;;;;;;4.07;2.88;;;;;;;;;;5076078;28;20021;-86
2023/10/18 15:10:02;;;;;;;6.32;3.60;;;;;;;;;;5056956;28;20094;-86
2023/10/18 15:12:27;;;;;;;5.70;3.83;;;;;;;;;;5079823;28;20055;-85
2023/10/18 15:14:53;;;;;;;5.57;3.22;;;;;;;;;;5076558;28;20040;-85
2023/10/18 15:17:18;;;;;;;5.32;3.45;;;;;;;;;;5056390;28;20020;-88
2023/10/18 15:19:44;;;;;;;6.40;3.17;;;;;;;;;;5080441;28;20078;-87
2023/10/18 15:22:09;;;;;;;3.92;2.90;;;;;;;;;;5079129;28;20024;-86
2023/10/18 15:24:40;;;;;;;4.55;3.20;;;;;;;;;;5079635;28;20620;-85
2023/10/18 15:27:07;;;;;;;5.68;3.45;;;;;;;;;;5061750;28;20383;-86
2023/10/18 15:29:32;;;;;;;5.05;3.78;;;;;;;;;;5060288;28;20028;-86
2023/10/18 15:31:59;;;;;;;4.97;3.33;;;;;;;;;;5076901;28;20028;-85
2023/10/18 15:34:25;;;;;;;5.32;3.60;;;;;;;;;;5078103;28;20027;-86